Pongnae — 3FDZ8 — position and weather

sailwx.info

Track history (hours):
 
Tides and Currents Weather Stations Pressure Air Temp Water Temp Dewpoint Dewpoint Depression Visibility Wind Speed Wind Dir Waves Ship Positions

Pongnae

Operator: V Ships Leisure SAM

Last reported at 2016-Aug-26 09:25 UTC. Time now 2016-Aug-26 10:12 UTC.
Position N 22°18' E 114°13'.

Length 171 m; draft 6.6 m.

Type: Passenger vessel. MMSI: 353669000.

Date/timePositionNaut miles runAvg speedWind from/ knotsBaromVisibWave heightAir tempDewpointWater temp
2016-Aug-26 09:25N 22°18' E 114°13'0 0.0
2016-Aug-26 08:25N 22°18' E 114°13'0 0.0
2016-Aug-26 07:10N 22°18' E 114°13'0 0.0
2016-Aug-26 06:28N 22°18' E 114°13'0 0.0
2016-Aug-26 04:34N 22°18' E 114°13'0 0.0
2016-Aug-26 03:22N 22°18' E 114°13'0 0.0
2016-Aug-26 02:18N 22°18' E 114°13'0 0.0
2016-Aug-26 01:21N 22°18' E 114°13'0 0.1
2016-Aug-26 00:33N 22°18' E 114°13'2 1.8
2016-Aug-25 23:33N 22°17' E 114°15'7 7.1
2016-Aug-25 22:33N 22°12' E 114°20'2 0.2
2016-Aug-25 13:19N 22°10' E 114°19'810.1
2016-Aug-25 12:33N 22°16' E 114°15'2 2.1
2016-Aug-25 11:32N 22°18' E 114°13'0 0.0
2016-Aug-25 10:29N 22°18' E 114°13'0 0.1
2016-Aug-25 09:32N 22°18' E 114°13'0 0.0
2016-Aug-25 07:05N 22°18' E 114°13'0 0.0
2016-Aug-25 06:29N 22°18' E 114°13'0 0.0
2016-Aug-25 04:26N 22°18' E 114°13'0 0.0
2016-Aug-25 00:07N 22°18' E 114°13'2 3.2
2016-Aug-24 23:33N 22°17' E 114°15'8 7.9
2016-Aug-24 22:30N 22°11' E 114°22'1 0.1
2016-Aug-24 13:29N 22°10' E 114°21'910.1
2016-Aug-24 12:33N 22°17' E 114°14'1 0.9
2016-Aug-24 11:28N 22°18' E 114°13'0 0.1
2016-Aug-24 10:28N 22°18' E 114°13'0 0.1
2016-Aug-24 09:28N 22°18' E 114°13'0 0.0
2016-Aug-24 08:04N 22°18' E 114°13'0 0.1
2016-Aug-24 07:31N 22°18' E 114°13'0 0.0
2016-Aug-24 06:28N 22°18' E 114°13'0 0.0
2016-Aug-24 03:28N 22°18' E 114°13'0 0.0
2016-Aug-24 01:22N 22°18' E 114°13'4 2.0
2016-Aug-23 23:13N 22°15' E 114°17'6 8.7
2016-Aug-23 22:33N 22°11' E 114°21'6 0.7
2016-Aug-23 14:06N 22°07' E 114°26'610.0
2016-Aug-23 13:33N 22°10' E 114°21'10 9.7
2016-Aug-23 12:34N 22°17' E 114°14'1 0.9
2016-Aug-23 11:33N 22°18' E 114°13'0 0.0
2016-Aug-23 10:26N 22°18' E 114°13'0 0.0
2016-Aug-23 09:26N 22°18' E 114°13'0 0.0
2016-Aug-23 08:29N 22°18' E 114°13'0 0.0
2016-Aug-23 07:26N 22°18' E 114°13'0 0.1
2016-Aug-23 06:32N 22°18' E 114°13'0 0.1
2016-Aug-23 05:29N 22°18' E 114°13'0 0.0
2016-Aug-23 04:23N 22°18' E 114°13'0 0.0
2016-Aug-23 03:29N 22°18' E 114°13'0 0.0
2016-Aug-23 02:26N 22°18' E 114°13'0 0.0
2016-Aug-23 01:26N 22°18' E 114°13'3 1.3
2016-Aug-22 23:33N 22°16' E 114°15'9 8.8
2016-Aug-22 22:33N 22°10' E 114°22'0 0.0
2016-Aug-22 13:33N 22°10' E 114°22'10 9.5
2016-Aug-22 12:33N 22°17' E 114°14'1 1.2
2016-Aug-22 11:25N 22°18' E 114°13'0 0.1
2016-Aug-22 10:25N 22°18' E 114°13'0 0.1
2016-Aug-22 09:31N 22°18' E 114°13'0 0.1
2016-Aug-22 08:31N 22°18' E 114°13'0 0.0
2016-Aug-22 07:25N 22°18' E 114°13'0 0.0
2016-Aug-22 06:10N 22°18' E 114°13'0 0.0
2016-Aug-22 05:24N 22°18' E 114°13'0 0.0
2016-Aug-22 03:30N 22°18' E 114°13'1 0.2
2016-Aug-21 23:33N 22°17' E 114°14'9 9.1
2016-Aug-21 22:33N 22°10' E 114°20'2 0.2
2016-Aug-21 13:32N 22°11' E 114°22'10 9.7
2016-Aug-21 12:33N 22°17' E 114°15'2 0.7
2016-Aug-21 10:14N 22°18' E 114°13'0 0.0
2016-Aug-21 09:26N 22°18' E 114°13'0 0.0
2016-Aug-21 06:17N 22°18' E 114°13'0 0.0
2016-Aug-21 05:32N 22°18' E 114°13'0 0.0
2016-Aug-21 04:29N 22°18' E 114°13'0 0.0
2016-Aug-21 03:32N 22°18' E 114°13'1 0.2
2016-Aug-20 23:33N 22°17' E 114°14'9 9.2
2016-Aug-20 22:33N 22°11' E 114°21'2 0.3
2016-Aug-20 14:09N 22°09' E 114°23'610.5
2016-Aug-20 13:33N 22°13' E 114°17'6 6.2
2016-Aug-20 12:33N 22°18' E 114°13'0 0.0
2016-Aug-20 11:32N 22°18' E 114°13'0 0.0
2016-Aug-20 09:28N 22°18' E 114°13'0 0.0
2016-Aug-20 06:28N 22°18' E 114°13'0 0.1
2016-Aug-20 05:28N 22°18' E 114°13'0 0.0
2016-Aug-20 04:19N 22°18' E 114°13'0 0.0
2016-Aug-20 03:19N 22°18' E 114°13'0 0.0
2016-Aug-20 02:13N 22°18' E 114°13'0 0.0
2016-Aug-20 01:19N 22°18' E 114°13'0 0.0
2016-Aug-20 00:10N 22°18' E 114°13'2 2.5
2016-Aug-19 23:33N 22°17' E 114°15'9 9.0
2016-Aug-19 22:33N 22°10' E 114°21'2 0.2
2016-Aug-19 13:33N 22°08' E 114°20'9 9.6
2016-Aug-19 12:33N 22°17' E 114°15'2 1.5
2016-Aug-19 11:25N 22°18' E 114°13'0 0.0
2016-Aug-19 10:19N 22°18' E 114°13'0 0.0
2016-Aug-19 06:22N 22°18' E 114°13'0 0.0
2016-Aug-19 04:07N 22°18' E 114°13'0 0.0
2016-Aug-19 01:07N 22°18' E 114°13'0 0.0
2016-Aug-19 00:31N 22°18' E 114°13'2 1.8
2016-Aug-18 23:33N 22°17' E 114°15'8 8.3
2016-Aug-18 22:34N 22°10' E 114°20'1 0.1
2016-Aug-18 13:31N 22°09' E 114°19'8 8.7
2016-Aug-18 12:33N 22°17' E 114°15'2 1.3
2016-Aug-18 11:12N 22°18' E 114°13'0 0.0
2016-Aug-18 10:30N 22°18' E 114°13'0 0.0
2016-Aug-18 09:29N 22°18' E 114°13'0 0.0
2016-Aug-18 08:20N 22°18' E 114°13'0 0.0
2016-Aug-18 07:26N 22°18' E 114°13'0 0.0
2016-Aug-18 06:32N 22°18' E 114°13'0 0.1
2016-Aug-18 04:32N 22°18' E 114°13'0 0.1
2016-Aug-18 03:32N 22°18' E 114°13'4 4.5
2016-Aug-18 02:33N 22°15' E 114°17'  
Track history (hours):
 
Tides and Currents Weather Stations Pressure Air Temp Water Temp Dewpoint Dewpoint Depression Visibility Wind Speed Wind Dir Waves Ship Positions

Pongnae

Operator: V Ships Leisure SAM

Last reported at 2016-Aug-26 09:25 UTC. Time now 2016-Aug-26 10:12 UTC.
Position N 22°18' E 114°13'.

Length 171 m; draft 6.6 m.

Type: Passenger vessel. MMSI: 353669000.

Date/timePositionNaut miles runAvg speedWind from/ knotsBaromVisibWave heightAir tempDewpointWater temp
2016-Aug-26 09:25N 22°18' E 114°13'0 0.0
2016-Aug-26 08:25N 22°18' E 114°13'0 0.0
2016-Aug-26 07:10N 22°18' E 114°13'0 0.0
2016-Aug-26 06:28N 22°18' E 114°13'0 0.0
2016-Aug-26 04:34N 22°18' E 114°13'0 0.0
2016-Aug-26 03:22N 22°18' E 114°13'0 0.0
2016-Aug-26 02:18N 22°18' E 114°13'0 0.0
2016-Aug-26 01:21N 22°18' E 114°13'0 0.1
2016-Aug-26 00:33N 22°18' E 114°13'2 1.8
2016-Aug-25 23:33N 22°17' E 114°15'7 7.1
2016-Aug-25 22:33N 22°12' E 114°20'2 0.2
2016-Aug-25 13:19N 22°10' E 114°19'810.1
2016-Aug-25 12:33N 22°16' E 114°15'2 2.1
2016-Aug-25 11:32N 22°18' E 114°13'0 0.0
2016-Aug-25 10:29N 22°18' E 114°13'0 0.1
2016-Aug-25 09:32N 22°18' E 114°13'0 0.0
2016-Aug-25 07:05N 22°18' E 114°13'0 0.0
2016-Aug-25 06:29N 22°18' E 114°13'0 0.0
2016-Aug-25 04:26N 22°18' E 114°13'0 0.0
2016-Aug-25 00:07N 22°18' E 114°13'2 3.2
2016-Aug-24 23:33N 22°17' E 114°15'8 7.9
2016-Aug-24 22:30N 22°11' E 114°22'1 0.1
2016-Aug-24 13:29N 22°10' E 114°21'910.1
2016-Aug-24 12:33N 22°17' E 114°14'1 0.9
2016-Aug-24 11:28N 22°18' E 114°13'0 0.1
2016-Aug-24 10:28N 22°18' E 114°13'0 0.1
2016-Aug-24 09:28N 22°18' E 114°13'0 0.0
2016-Aug-24 08:04N 22°18' E 114°13'0 0.1
2016-Aug-24 07:31N 22°18' E 114°13'0 0.0
2016-Aug-24 06:28N 22°18' E 114°13'0 0.0
2016-Aug-24 03:28N 22°18' E 114°13'0 0.0
2016-Aug-24 01:22N 22°18' E 114°13'4 2.0
2016-Aug-23 23:13N 22°15' E 114°17'6 8.7
2016-Aug-23 22:33N 22°11' E 114°21'6 0.7
2016-Aug-23 14:06N 22°07' E 114°26'610.0
2016-Aug-23 13:33N 22°10' E 114°21'10 9.7
2016-Aug-23 12:34N 22°17' E 114°14'1 0.9
2016-Aug-23 11:33N 22°18' E 114°13'0 0.0
2016-Aug-23 10:26N 22°18' E 114°13'0 0.0
2016-Aug-23 09:26N 22°18' E 114°13'0 0.0
2016-Aug-23 08:29N 22°18' E 114°13'0 0.0
2016-Aug-23 07:26N 22°18' E 114°13'0 0.1
2016-Aug-23 06:32N 22°18' E 114°13'0 0.1
2016-Aug-23 05:29N 22°18' E 114°13'0 0.0
2016-Aug-23 04:23N 22°18' E 114°13'0 0.0
2016-Aug-23 03:29N 22°18' E 114°13'0 0.0
2016-Aug-23 02:26N 22°18' E 114°13'0 0.0
2016-Aug-23 01:26N 22°18' E 114°13'3 1.3
2016-Aug-22 23:33N 22°16' E 114°15'9 8.8
2016-Aug-22 22:33N 22°10' E 114°22'0 0.0
2016-Aug-22 13:33N 22°10' E 114°22'10 9.5
2016-Aug-22 12:33N 22°17' E 114°14'1 1.2
2016-Aug-22 11:25N 22°18' E 114°13'0 0.1
2016-Aug-22 10:25N 22°18' E 114°13'0 0.1
2016-Aug-22 09:31N 22°18' E 114°13'0 0.1
2016-Aug-22 08:31N 22°18' E 114°13'0 0.0
2016-Aug-22 07:25N 22°18' E 114°13'0 0.0
2016-Aug-22 06:10N 22°18' E 114°13'0 0.0
2016-Aug-22 05:24N 22°18' E 114°13'0 0.0
2016-Aug-22 03:30N 22°18' E 114°13'1 0.2
2016-Aug-21 23:33N 22°17' E 114°14'9 9.1
2016-Aug-21 22:33N 22°10' E 114°20'2 0.2
2016-Aug-21 13:32N 22°11' E 114°22'10 9.7
2016-Aug-21 12:33N 22°17' E 114°15'2 0.7
2016-Aug-21 10:14N 22°18' E 114°13'0 0.0
2016-Aug-21 09:26N 22°18' E 114°13'0 0.0
2016-Aug-21 06:17N 22°18' E 114°13'0 0.0
2016-Aug-21 05:32N 22°18' E 114°13'0 0.0
2016-Aug-21 04:29N 22°18' E 114°13'0 0.0
2016-Aug-21 03:32N 22°18' E 114°13'1 0.2
2016-Aug-20 23:33N 22°17' E 114°14'9 9.2
2016-Aug-20 22:33N 22°11' E 114°21'2 0.3
2016-Aug-20 14:09N 22°09' E 114°23'610.5
2016-Aug-20 13:33N 22°13' E 114°17'6 6.2
2016-Aug-20 12:33N 22°18' E 114°13'0 0.0
2016-Aug-20 11:32N 22°18' E 114°13'0 0.0
2016-Aug-20 09:28N 22°18' E 114°13'0 0.0
2016-Aug-20 06:28N 22°18' E 114°13'0 0.1
2016-Aug-20 05:28N 22°18' E 114°13'0 0.0
2016-Aug-20 04:19N 22°18' E 114°13'0 0.0
2016-Aug-20 03:19N 22°18' E 114°13'0 0.0
2016-Aug-20 02:13N 22°18' E 114°13'0 0.0
2016-Aug-20 01:19N 22°18' E 114°13'0 0.0
2016-Aug-20 00:10N 22°18' E 114°13'2 2.5
2016-Aug-19 23:33N 22°17' E 114°15'9 9.0
2016-Aug-19 22:33N 22°10' E 114°21'2 0.2
2016-Aug-19 13:33N 22°08' E 114°20'9 9.6
2016-Aug-19 12:33N 22°17' E 114°15'2 1.5
2016-Aug-19 11:25N 22°18' E 114°13'0 0.0
2016-Aug-19 10:19N 22°18' E 114°13'0 0.0
2016-Aug-19 06:22N 22°18' E 114°13'0 0.0
2016-Aug-19 04:07N 22°18' E 114°13'0 0.0
2016-Aug-19 01:07N 22°18' E 114°13'0 0.0
2016-Aug-19 00:31N 22°18' E 114°13'2 1.8
2016-Aug-18 23:33N 22°17' E 114°15'8 8.3
2016-Aug-18 22:34N 22°10' E 114°20'1 0.1
2016-Aug-18 13:31N 22°09' E 114°19'8 8.7
2016-Aug-18 12:33N 22°17' E 114°15'2 1.3
2016-Aug-18 11:12N 22°18' E 114°13'0 0.0
2016-Aug-18 10:30N 22°18' E 114°13'0 0.0
2016-Aug-18 09:29N 22°18' E 114°13'0 0.0
2016-Aug-18 08:20N 22°18' E 114°13'0 0.0
2016-Aug-18 07:26N 22°18' E 114°13'0 0.0
2016-Aug-18 06:32N 22°18' E 114°13'0 0.1
2016-Aug-18 04:32N 22°18' E 114°13'0 0.1
2016-Aug-18 03:32N 22°18' E 114°13'4 4.5
2016-Aug-18 02:33N 22°15' E 114°17'  

Dump ship's entire track history